Terminal Aerodrome Forecast
Issued by NWS Twin Cities, MN

Home | Current Version | Previous Version | Graphics & Text | Print | Product List | Glossary On
Versions: 1 2 3 4 5 6 7 8 9 10 11 12 13 14
000
FTUS43 KMPX 280500
TAFSTC
TAF
KSTC 280527Z 2806/2906 32003KT P6SM SCT035 OVC060
     FM280900 35004KT P6SM SCT050
     FM281500 33008KT P6SM SCT040
     FM290100 32004KT P6SM SKC=

USA.gov is the U.S. government's official web portal to all federal, state and local government web resources and services.